EIKY/KIR METAR and TAF weather

Enter ICAO airport designator
Station Type Date Time Source
EIKY METAR 2018/01/16 08:30 UTC NOAA

EIKY 160830Z 29014KT 9999 -RA SCT023 BKN037 05/00 Q0999


Station Type Date Time Source
EIKY Decoded METAR 2018/01/16 08:30 UTC NOAA

Station name not available
Jan 16, 2018 - 03:30 AM EST / 2018.01.16 0830 UTC
Wind: from the WNW (290 degrees) at 16 MPH (14 KT):0
Visibility: greater than 7 mile(s):0
Sky conditions: mostly cloudy
Weather: light rain
Temperature: 41 F (5 C)
Dew Point: 32 F (0 C)
Relative Humidity: 70%
Pressure (altimeter): 29.50 in. Hg (0999 hPa)
ob: EIKY 160830Z 29014KT 9999 -RA SCT023 BKN037 05/00 Q0999
cycle: 8

Station Type Date Time Source
EIKY TAF UTC NOAA

Error!


Example: see airport list